createdAt,value
2018-11-25T00:00:41.583Z,2.61
2018-11-25T00:03:10.465Z,2.68
2018-11-25T00:05:39.333Z,2.61
2018-11-25T00:08:08.141Z,2.52
2018-11-25T00:10:36.631Z,2.54
2018-11-25T00:13:05.296Z,2.53
2018-11-25T00:15:33.966Z,2.55
2018-11-25T00:18:02.591Z,2.55
2018-11-25T00:20:31.373Z,2.52
2018-11-25T00:23:00.367Z,2.52
2018-11-25T00:25:29.678Z,2.54
2018-11-25T00:27:58.549Z,2.47
2018-11-25T00:30:27.081Z,2.50
2018-11-25T00:32:56.169Z,2.52
2018-11-25T00:35:24.939Z,2.53
2018-11-25T00:37:53.907Z,2.51
2018-11-25T00:40:22.701Z,2.40
2018-11-25T00:42:51.447Z,2.41
2018-11-25T00:45:21.615Z,2.45
2018-11-25T00:47:50.825Z,2.47
2018-11-25T00:50:19.528Z,2.47
2018-11-25T00:52:48.257Z,2.54
2018-11-25T00:55:18.634Z,2.52
2018-11-25T00:57:47.943Z,2.58
2018-11-25T01:00:18.923Z,2.58
2018-11-25T01:02:48.597Z,2.60
2018-11-25T01:05:17.938Z,2.58
2018-11-25T01:07:47.560Z,2.49
2018-11-25T01:10:17.321Z,2.49
2018-11-25T01:12:46.271Z,2.48
2018-11-25T01:15:19.115Z,2.54
2018-11-25T01:17:47.815Z,2.59
2018-11-25T01:20:21.432Z,2.54
2018-11-25T01:22:50.068Z,2.55
2018-11-25T01:25:20.024Z,2.59
2018-11-25T01:27:48.795Z,2.64
2018-11-25T01:30:18.176Z,2.61
2018-11-25T01:32:46.987Z,2.61
2018-11-25T01:35:15.481Z,2.64
2018-11-25T01:37:44.064Z,2.61
2018-11-25T01:40:13.642Z,2.65
2018-11-25T01:42:44.656Z,2.62
2018-11-25T01:45:15.957Z,2.63
2018-11-25T01:47:44.860Z,2.70
2018-11-25T01:50:15.067Z,2.75
2018-11-25T01:52:43.920Z,2.73
2018-11-25T01:55:15.197Z,2.76
2018-11-25T01:57:45.312Z,2.78
2018-11-25T02:00:22.947Z,2.79
2018-11-25T02:02:51.758Z,2.79
2018-11-25T02:05:20.406Z,2.80
2018-11-25T02:07:49.041Z,2.79
2018-11-25T02:10:18.538Z,2.85
2018-11-25T02:12:47.456Z,2.81
2018-11-25T02:15:17.037Z,2.90
2018-11-25T02:17:45.809Z,2.90
2018-11-25T02:20:21.358Z,2.93
2018-11-25T02:22:50.886Z,2.93
2018-11-25T02:25:19.678Z,2.86
2018-11-25T02:27:48.771Z,2.91
2018-11-25T02:30:18.040Z,2.91
2018-11-25T02:32:47.870Z,2.84
2018-11-25T02:35:17.044Z,2.89
2018-11-25T02:37:45.672Z,2.89
2018-11-25T02:40:15.425Z,2.82
2018-11-25T02:42:44.679Z,2.86
2018-11-25T02:45:18.479Z,2.76
2018-11-25T02:47:47.666Z,2.75
2018-11-25T02:50:32.749Z,2.73
2018-11-25T02:53:03.663Z,2.72
2018-11-25T02:55:32.761Z,2.75
2018-11-25T02:58:01.704Z,2.79
2018-11-25T03:00:33.164Z,2.79
2018-11-25T03:03:01.645Z,2.79
2018-11-25T03:05:30.722Z,2.79
2018-11-25T03:08:00.054Z,2.78
2018-11-25T03:10:29.804Z,2.70
2018-11-25T03:12:59.092Z,2.69
2018-11-25T03:15:28.294Z,2.73
2018-11-25T03:17:57.322Z,2.76
2018-11-25T03:20:26.245Z,2.79
2018-11-25T03:22:55.748Z,2.83
2018-11-25T03:25:24.615Z,2.77
2018-11-25T03:27:54.497Z,2.81
2018-11-25T03:30:23.634Z,2.80
2018-11-25T03:32:54.263Z,2.81
2018-11-25T03:35:23.281Z,2.79
2018-11-25T03:37:51.723Z,2.80
2018-11-25T03:40:21.096Z,2.79
2018-11-25T03:42:50.150Z,2.73
2018-11-25T03:45:22.251Z,2.75
2018-11-25T03:47:51.253Z,2.77
2018-11-25T03:50:21.097Z,2.67
2018-11-25T03:52:50.165Z,2.72
2018-11-25T03:55:19.321Z,2.75
2018-11-25T03:57:48.518Z,2.79
2018-11-25T04:00:22.217Z,2.75
2018-11-25T04:02:53.110Z,2.73
2018-11-25T04:05:21.559Z,2.73
2018-11-25T04:07:50.644Z,2.72
2018-11-25T04:10:20.338Z,2.74
2018-11-25T04:12:49.216Z,2.78
2018-11-25T04:15:19.388Z,2.73
2018-11-25T04:17:49.269Z,2.77
2018-11-25T04:20:20.402Z,2.75
2018-11-25T04:22:50.461Z,2.73
2018-11-25T04:25:19.503Z,2.74
2018-11-25T04:27:48.480Z,2.77
2018-11-25T04:30:18.820Z,2.79
2018-11-25T04:32:49.256Z,2.81
2018-11-25T04:35:18.626Z,2.81
2018-11-25T04:37:47.622Z,2.82
2018-11-25T04:40:18.887Z,2.86
2018-11-25T04:42:48.206Z,2.81
2018-11-25T04:45:17.944Z,2.84
2018-11-25T04:47:47.703Z,2.83
2018-11-25T04:50:20.498Z,2.81
2018-11-25T04:52:50.985Z,2.85
2018-11-25T04:55:20.092Z,2.86
2018-11-25T04:57:52.437Z,2.86
2018-11-25T05:00:22.396Z,2.88
2018-11-25T05:02:52.489Z,2.88
2018-11-25T05:05:22.942Z,2.86
2018-11-25T05:07:51.934Z,2.88
2018-11-25T05:10:21.144Z,2.85
2018-11-25T05:12:50.135Z,2.89
2018-11-25T05:15:22.121Z,2.84
2018-11-25T05:17:51.658Z,2.88
2018-11-25T05:20:21.623Z,2.81
2018-11-25T05:22:50.814Z,2.82
2018-11-25T05:25:20.615Z,2.84
2018-11-25T05:27:50.025Z,2.89
2018-11-25T05:30:20.933Z,2.81
2018-11-25T05:32:50.066Z,2.78
2018-11-25T05:35:20.449Z,2.85
2018-11-25T05:37:50.612Z,2.84
2018-11-25T05:40:19.920Z,2.84
2018-11-25T05:42:50.034Z,2.80
2018-11-25T05:45:20.459Z,2.81
2018-11-25T05:47:49.852Z,2.78
2018-11-25T05:50:20.821Z,2.81
2018-11-25T05:52:50.148Z,2.80
2018-11-25T05:55:19.473Z,2.84
2018-11-25T05:57:48.690Z,2.81
2018-11-25T06:00:37.561Z,2.76
2018-11-25T06:03:07.064Z,2.77
2018-11-25T06:05:36.891Z,2.73
2018-11-25T06:08:06.174Z,2.75
2018-11-25T06:10:35.689Z,2.71
2018-11-25T06:13:05.442Z,2.73
2018-11-25T06:15:34.987Z,2.73
2018-11-25T06:18:04.222Z,2.70
2018-11-25T06:20:48.898Z,2.69
2018-11-25T06:23:17.908Z,2.67
2018-11-25T06:25:47.770Z,2.70
2018-11-25T06:28:17.115Z,2.64
2018-11-25T06:30:46.319Z,2.67
2018-11-25T06:33:15.625Z,2.64
2018-11-25T06:35:44.869Z,2.63
2018-11-25T06:38:14.480Z,2.63
2018-11-25T06:40:43.838Z,2.59
2018-11-25T06:43:14.694Z,2.59
2018-11-25T06:45:44.497Z,2.58
2018-11-25T06:48:16.297Z,2.62
2018-11-25T06:50:48.056Z,2.59
2018-11-25T06:53:17.443Z,2.56
2018-11-25T06:55:46.946Z,2.57
2018-11-25T06:58:16.431Z,2.57
2018-11-25T07:00:46.678Z,2.57
2018-11-25T07:03:16.588Z,2.59
2018-11-25T07:05:44.996Z,2.57
2018-11-25T07:08:14.040Z,2.60
2018-11-25T07:10:42.466Z,2.58
2018-11-25T07:13:10.855Z,2.58
2018-11-25T07:15:39.216Z,2.61
2018-11-25T07:18:07.593Z,2.59
2018-11-25T07:20:35.968Z,2.62
2018-11-25T07:23:10.618Z,2.62
2018-11-25T07:25:47.340Z,2.63
2018-11-25T07:28:20.443Z,2.64
2018-11-25T07:30:53.636Z,2.68
2018-11-25T07:33:22.840Z,2.64
2018-11-25T07:35:51.940Z,2.67
2018-11-25T07:38:21.092Z,2.66
2018-11-25T07:40:50.324Z,2.65
2018-11-25T07:43:19.316Z,2.72
2018-11-25T07:45:48.351Z,2.72
2018-11-25T07:48:17.438Z,2.76
2018-11-25T07:50:47.227Z,2.77
2018-11-25T07:53:16.658Z,2.76
2018-11-25T07:55:47.007Z,2.78
2018-11-25T07:58:16.324Z,2.77
2018-11-25T08:00:45.492Z,2.79
2018-11-25T08:03:19.077Z,2.79
2018-11-25T08:05:48.792Z,2.81
2018-11-25T08:08:18.452Z,2.83
2018-11-25T08:14:32.876Z,2.82
2018-11-25T08:17:03.197Z,2.84
2018-11-25T08:19:38.030Z,2.86
2018-11-25T08:22:18.505Z,2.86
2018-11-25T08:24:58.286Z,2.91
2018-11-25T08:27:27.888Z,2.96
2018-11-25T08:30:05.975Z,2.98
2018-11-25T08:32:39.015Z,3.02
2018-11-25T08:35:08.366Z,3.08
2018-11-25T08:37:36.851Z,3.06
2018-11-25T08:40:11.260Z,3.09
2018-11-25T08:42:40.296Z,3.03
2018-11-25T08:45:10.596Z,3.04
2018-11-25T08:47:39.672Z,3.04
2018-11-25T08:50:16.280Z,3.08
2018-11-25T08:52:46.325Z,3.06
2018-11-25T08:55:23.825Z,3.08
2018-11-25T08:57:53.067Z,3.11
2018-11-25T09:00:33.505Z,3.12
2018-11-25T09:03:10.595Z,3.14
2018-11-25T09:05:40.012Z,3.19
2018-11-25T09:08:12.036Z,3.20
2018-11-25T09:10:41.047Z,3.30
2018-11-25T09:13:09.452Z,3.31
2018-11-25T09:15:39.341Z,3.31
2018-11-25T09:18:07.971Z,3.28
2018-11-25T09:20:36.385Z,3.34
2018-11-25T09:23:06.654Z,3.38
2018-11-25T09:25:35.354Z,3.47
2018-11-25T09:28:04.903Z,3.55
2018-11-25T09:30:34.350Z,3.56
2018-11-25T09:33:03.271Z,3.59
2018-11-25T09:35:32.104Z,3.61
2018-11-25T09:38:01.479Z,3.68
2018-11-25T09:40:30.329Z,3.66
2018-11-25T09:42:59.070Z,3.72
2018-11-25T09:45:27.772Z,3.71
2018-11-25T09:47:57.899Z,3.72
2018-11-25T09:50:28.030Z,3.67
2018-11-25T09:52:56.793Z,3.71
2018-11-25T09:55:27.390Z,3.71
2018-11-25T09:58:00.404Z,3.81
2018-11-25T10:00:33.299Z,3.86
2018-11-25T10:03:03.014Z,3.87
2018-11-25T10:05:31.840Z,3.87
2018-11-25T10:08:00.834Z,3.86
2018-11-25T10:10:29.384Z,3.93
2018-11-25T10:12:57.855Z,3.98
2018-11-25T10:15:27.382Z,4.03
2018-11-25T10:17:59.697Z,4.04
2018-11-25T10:20:25.812Z,4.07
2018-11-25T10:22:54.295Z,4.10
2018-11-25T10:25:22.669Z,4.11
2018-11-25T10:27:51.280Z,4.14
2018-11-25T10:30:20.764Z,4.14
2018-11-25T10:32:50.443Z,4.14
2018-11-25T10:35:19.740Z,4.18
2018-11-25T10:37:48.445Z,4.21
2018-11-25T10:40:19.729Z,4.24
2018-11-25T10:42:48.207Z,4.14
2018-11-25T10:45:18.865Z,4.23
2018-11-25T10:47:47.686Z,4.27
2018-11-25T10:50:17.803Z,4.35
2018-11-25T10:52:46.455Z,4.23
2018-11-25T10:55:16.862Z,4.24
2018-11-25T10:57:47.432Z,4.26
2018-11-25T11:00:25.651Z,4.40
2018-11-25T11:03:56.599Z,4.40
2018-11-25T11:06:31.985Z,4.36
2018-11-25T11:09:00.536Z,4.36
2018-11-25T11:11:28.994Z,4.36
2018-11-25T11:13:57.390Z,4.33
2018-11-25T11:16:26.669Z,4.37
2018-11-25T11:18:55.149Z,4.41
2018-11-25T11:21:23.780Z,4.37
2018-11-25T11:23:52.441Z,4.46
2018-11-25T11:26:23.680Z,4.46
2018-11-25T11:28:52.197Z,4.44
2018-11-25T11:31:20.753Z,4.45
2018-11-25T11:33:49.311Z,4.54
2018-11-25T11:36:17.769Z,4.51
2018-11-25T11:38:46.253Z,4.59
2018-11-25T11:41:15.133Z,4.63
2018-11-25T11:43:43.666Z,4.63
2018-11-25T11:46:12.083Z,4.60
2018-11-25T11:48:40.589Z,4.58
2018-11-25T11:51:10.037Z,4.45
2018-11-25T11:53:38.495Z,4.42
2018-11-25T11:56:06.901Z,4.44
2018-11-25T11:58:35.504Z,4.54
2018-11-25T12:01:03.965Z,4.54
2018-11-25T12:03:32.498Z,4.49
2018-11-25T12:06:00.941Z,4.46
2018-11-25T12:08:29.347Z,4.54
2018-11-25T12:10:58.126Z,4.48
2018-11-25T12:13:26.689Z,4.56
2018-11-25T12:15:55.143Z,4.51
2018-11-25T12:18:23.797Z,4.47
2018-11-25T12:20:52.319Z,4.45
2018-11-25T12:23:20.708Z,4.54
2018-11-25T12:25:49.250Z,4.44
2018-11-25T12:28:17.720Z,4.42
2018-11-25T12:30:46.562Z,4.45
2018-11-25T12:33:16.863Z,4.39
2018-11-25T12:35:45.604Z,4.42
2018-11-25T12:38:14.148Z,4.24
2018-11-25T12:40:42.632Z,4.15
2018-11-25T12:43:11.557Z,4.24
2018-11-25T12:45:40.700Z,4.24
2018-11-25T12:48:09.252Z,4.19
2018-11-25T12:50:37.697Z,4.11
2018-11-25T12:53:06.268Z,4.19
2018-11-25T12:55:34.702Z,4.22
2018-11-25T12:58:03.180Z,4.19
2018-11-25T13:00:35.675Z,4.18
2018-11-25T13:03:04.526Z,4.14
2018-11-25T13:05:33.251Z,4.20
2018-11-25T13:08:01.912Z,4.25
2018-11-25T13:10:31.168Z,4.20
2018-11-25T13:13:00.806Z,4.18
2018-11-25T13:15:30.359Z,4.21
2018-11-25T13:17:59.013Z,4.18
2018-11-25T13:20:28.396Z,4.25
2018-11-25T13:22:58.885Z,4.09
2018-11-25T13:25:27.533Z,4.05
2018-11-25T13:27:55.983Z,4.05
2018-11-25T13:30:25.872Z,3.93
2018-11-25T13:32:55.383Z,3.94
2018-11-25T13:35:24.349Z,3.96
2018-11-25T13:37:53.132Z,3.97
2018-11-25T13:40:22.116Z,3.94
2018-11-25T13:42:51.206Z,3.95
2018-11-25T13:45:19.905Z,4.02
2018-11-25T13:47:48.542Z,4.00
2018-11-25T13:50:17.293Z,3.88
2018-11-25T13:52:46.520Z,3.84
2018-11-25T13:55:20.178Z,3.86
2018-11-25T13:57:48.803Z,3.83
2018-11-25T14:00:51.640Z,3.84
2018-11-25T14:03:25.030Z,3.93
2018-11-25T14:05:53.694Z,3.89
2018-11-25T14:08:22.377Z,3.94
2018-11-25T14:10:57.591Z,3.94
2018-11-25T14:13:26.249Z,3.93
2018-11-25T14:15:54.661Z,3.96
2018-11-25T14:18:23.634Z,3.99
2018-11-25T14:20:52.066Z,3.99
2018-11-25T14:23:21.664Z,4.03
2018-11-25T14:25:50.844Z,4.02
2018-11-25T14:28:19.396Z,4.00
2018-11-25T14:30:48.911Z,4.01
2018-11-25T14:33:17.790Z,3.99
2018-11-25T14:35:46.353Z,3.99
2018-11-25T14:38:14.763Z,3.99
2018-11-25T14:40:43.229Z,4.05
2018-11-25T14:43:11.651Z,4.09
2018-11-25T14:45:40.399Z,4.07
2018-11-25T14:48:09.317Z,4.13
2018-11-25T14:50:38.477Z,4.06
2018-11-25T14:53:07.503Z,4.13
2018-11-25T14:55:36.469Z,4.16
2018-11-25T14:58:05.804Z,4.16
2018-11-25T15:00:35.792Z,4.16
2018-11-25T15:03:05.772Z,4.16
2018-11-25T15:05:49.490Z,4.12
2018-11-25T15:08:22.619Z,4.17
2018-11-25T15:11:06.015Z,4.12
2018-11-25T15:13:34.442Z,4.12
2018-11-25T15:16:03.566Z,4.15
2018-11-25T15:18:32.059Z,4.17
2018-11-25T15:21:00.451Z,4.20
2018-11-25T15:23:29.556Z,4.20
2018-11-25T15:25:58.974Z,4.18
2018-11-25T15:28:27.515Z,4.20
2018-11-25T15:30:57.090Z,4.21
2018-11-25T15:33:25.487Z,4.21
2018-11-25T15:35:53.846Z,4.22
2018-11-25T15:38:22.389Z,4.18
2018-11-25T15:40:51.850Z,4.21
2018-11-25T15:43:20.251Z,4.23
2018-11-25T15:45:48.651Z,4.15
2018-11-25T15:48:23.781Z,4.16
2018-11-25T15:50:52.292Z,4.18
2018-11-25T15:53:28.055Z,4.20
2018-11-25T15:55:59.025Z,4.21
2018-11-25T15:58:27.453Z,4.25
2018-11-25T16:00:55.905Z,4.24
2018-11-25T16:03:24.559Z,4.20
2018-11-25T16:06:19.056Z,4.20
2018-11-25T16:08:47.545Z,4.23
2018-11-25T16:11:15.952Z,4.23
2018-11-25T16:13:44.682Z,4.19
2018-11-25T16:16:13.041Z,4.19
2018-11-25T16:18:41.974Z,4.24
2018-11-25T16:21:10.943Z,4.20
2018-11-25T16:23:40.959Z,4.20
2018-11-25T16:26:18.921Z,4.16
2018-11-25T16:28:48.952Z,4.14
2018-11-25T16:31:17.431Z,4.20
2018-11-25T16:33:45.795Z,4.17
2018-11-25T16:36:14.704Z,4.15
2018-11-25T16:38:43.854Z,4.15
2018-11-25T16:41:12.940Z,4.16
2018-11-25T16:43:41.374Z,4.14
2018-11-25T16:46:10.387Z,4.16
2018-11-25T16:48:38.804Z,4.16
2018-11-25T16:51:08.151Z,4.17
2018-11-25T16:53:37.034Z,4.16
2018-11-25T16:56:06.007Z,4.18
2018-11-25T16:58:34.488Z,4.15
2018-11-25T17:01:09.776Z,4.14
2018-11-25T17:03:32.020Z,4.14
2018-11-25T17:06:00.412Z,4.15
2018-11-25T17:08:37.117Z,4.13
2018-11-25T17:11:05.790Z,4.12
2018-11-25T17:13:35.111Z,4.14
2018-11-25T17:16:03.500Z,4.15
2018-11-25T17:18:32.051Z,4.20
2018-11-25T17:21:00.499Z,4.20
2018-11-25T17:23:29.715Z,4.19
2018-11-25T17:25:58.542Z,4.17
2018-11-25T17:28:26.952Z,4.17
2018-11-25T17:30:55.334Z,4.18
2018-11-25T17:33:23.737Z,4.19
2018-11-25T17:35:52.112Z,4.18
2018-11-25T17:38:20.722Z,4.22
2018-11-25T17:40:49.785Z,4.20
2018-11-25T17:43:20.792Z,4.23
2018-11-25T17:45:49.219Z,4.25
2018-11-25T17:48:17.642Z,4.27
2018-11-25T17:50:46.216Z,4.24
2018-11-25T17:53:20.653Z,4.28
2018-11-25T17:55:43.441Z,4.24
2018-11-25T17:58:17.186Z,4.25
2018-11-25T18:00:53.097Z,4.26
2018-11-25T18:03:23.057Z,4.27
2018-11-25T18:05:51.482Z,4.23
2018-11-25T18:08:19.962Z,4.23
2018-11-25T18:10:48.366Z,4.24
2018-11-25T18:13:17.792Z,4.27
2018-11-25T18:15:46.450Z,4.23
2018-11-25T18:18:18.094Z,4.21
2018-11-25T18:20:56.042Z,4.24
2018-11-25T18:23:24.451Z,4.24
2018-11-25T18:25:55.129Z,4.26
2018-11-25T18:28:23.793Z,4.27
2018-11-25T18:30:52.572Z,4.25
2018-11-25T18:33:20.985Z,4.26
2018-11-25T18:35:49.793Z,4.29
2018-11-25T18:38:18.835Z,4.31
2018-11-25T18:40:47.781Z,4.30
2018-11-25T18:43:17.531Z,4.35
2018-11-25T18:45:46.059Z,4.41
2018-11-25T18:48:16.005Z,4.35
2018-11-25T18:50:44.500Z,4.33
2018-11-25T18:53:13.381Z,4.35
2018-11-25T18:55:40.699Z,4.33
2018-11-25T18:58:09.141Z,4.37
2018-11-25T19:00:41.043Z,4.43
2018-11-25T19:03:09.673Z,4.38
2018-11-25T19:05:38.361Z,4.38
2018-11-25T19:08:08.230Z,4.36
2018-11-25T19:10:37.720Z,4.36
2018-11-25T19:13:06.273Z,4.35
2018-11-25T19:15:35.126Z,4.38
2018-11-25T19:18:03.722Z,4.36
2018-11-25T19:20:32.309Z,4.40
2018-11-25T19:23:00.970Z,4.39
2018-11-25T19:25:30.098Z,4.40
2018-11-25T19:27:58.629Z,4.40
2018-11-25T19:30:27.297Z,4.35
2018-11-25T19:32:55.737Z,4.34
2018-11-25T19:35:24.324Z,4.37
2018-11-25T19:37:53.024Z,4.38
2018-11-25T19:40:25.078Z,4.37
2018-11-25T19:42:54.638Z,4.39
2018-11-25T19:45:24.258Z,4.38
2018-11-25T19:47:52.799Z,4.44
2018-11-25T19:50:27.536Z,4.42
2018-11-25T19:52:56.123Z,4.37
2018-11-25T19:55:32.681Z,4.40
2018-11-25T19:58:01.309Z,4.42
2018-11-25T20:00:30.033Z,4.38
2018-11-25T20:02:59.747Z,4.37
2018-11-25T20:05:28.160Z,4.40
2018-11-25T20:07:56.648Z,4.44
2018-11-25T20:10:25.942Z,4.42
2018-11-25T20:12:56.901Z,4.43
2018-11-25T20:15:25.487Z,4.49
2018-11-25T20:17:54.794Z,4.43
2018-11-25T20:20:25.710Z,4.42
2018-11-25T20:22:54.703Z,4.48
2018-11-25T20:25:23.585Z,4.43
2018-11-25T20:27:54.037Z,4.40
2018-11-25T20:30:25.788Z,4.47
2018-11-25T20:32:59.536Z,4.41
2018-11-25T20:35:28.021Z,4.43
2018-11-25T20:39:03.674Z,4.43
2018-11-25T20:41:32.409Z,4.41
2018-11-25T20:44:01.003Z,4.41
2018-11-25T20:46:34.674Z,4.39
2018-11-25T20:49:03.258Z,4.43
2018-11-25T20:53:40.784Z,4.38
2018-11-25T20:56:09.307Z,4.37
2018-11-25T20:58:37.749Z,4.39
2018-11-25T21:01:06.395Z,4.39
2018-11-25T21:03:37.752Z,4.36
2018-11-25T21:06:06.554Z,4.35
2018-11-25T21:08:34.980Z,4.39
2018-11-25T21:11:03.398Z,4.41
2018-11-25T21:13:32.679Z,4.38
2018-11-25T21:16:01.302Z,4.43
2018-11-25T21:18:29.908Z,4.45
2018-11-25T21:20:58.393Z,4.51
2018-11-25T21:23:26.977Z,4.43
2018-11-25T21:25:55.457Z,4.45
2018-11-25T21:28:24.007Z,4.43
2018-11-25T21:30:52.464Z,4.43
2018-11-25T21:33:20.867Z,4.46
2018-11-25T21:35:49.280Z,4.45
2018-11-25T21:38:17.694Z,4.41
2018-11-25T21:40:46.089Z,4.41
2018-11-25T21:43:14.486Z,4.40
2018-11-25T21:45:43.038Z,4.39
2018-11-25T21:48:11.577Z,4.42
2018-11-25T21:50:40.374Z,4.41
2018-11-25T21:53:08.900Z,4.40
2018-11-25T21:55:37.419Z,4.40
2018-11-25T21:58:06.995Z,4.43
2018-11-25T22:00:35.687Z,4.38
2018-11-25T22:03:04.474Z,4.41
2018-11-25T22:05:33.032Z,4.37
2018-11-25T22:08:01.590Z,4.39
2018-11-25T22:10:30.153Z,4.36
2018-11-25T22:12:58.636Z,4.38
2018-11-25T22:15:27.148Z,4.42
2018-11-25T22:17:56.113Z,4.40
2018-11-25T22:20:25.519Z,4.35
2018-11-25T22:22:54.434Z,4.41
2018-11-25T22:25:24.001Z,4.38
2018-11-25T22:27:52.827Z,4.43
2018-11-25T22:30:23.009Z,4.34
2018-11-25T22:32:51.881Z,4.32
2018-11-25T22:35:21.863Z,4.34
2018-11-25T22:37:51.070Z,4.36
2018-11-25T22:40:21.206Z,4.35
2018-11-25T22:42:50.606Z,4.35
2018-11-25T22:45:21.997Z,4.35
2018-11-25T22:47:50.903Z,4.35
2018-11-25T22:50:20.668Z,4.32
2018-11-25T22:52:52.332Z,4.35
2018-11-25T22:55:27.075Z,4.32
2018-11-25T22:57:55.539Z,4.32
2018-11-25T23:00:27.852Z,4.33
2018-11-25T23:02:56.320Z,4.28
2018-11-25T23:05:35.956Z,4.32
2018-11-25T23:08:05.476Z,4.32
2018-11-25T23:10:34.331Z,4.32
2018-11-25T23:13:02.778Z,4.32
2018-11-25T23:15:31.358Z,4.36
2018-11-25T23:18:00.510Z,4.34
2018-11-25T23:20:29.480Z,4.31
2018-11-25T23:22:57.871Z,4.32
2018-11-25T23:25:27.172Z,4.32
2018-11-25T23:27:56.210Z,4.31
2018-11-25T23:30:26.460Z,4.32
2018-11-25T23:32:55.685Z,4.34
2018-11-25T23:35:27.685Z,4.34
2018-11-25T23:37:56.199Z,4.34
2018-11-25T23:40:25.706Z,4.35
2018-11-25T23:42:56.093Z,4.40
2018-11-25T23:45:24.991Z,4.43
2018-11-25T23:47:53.485Z,4.38
2018-11-25T23:50:22.594Z,4.38
2018-11-25T23:52:52.676Z,4.43
2018-11-25T23:55:22.086Z,4.41
2018-11-25T23:57:51.658Z,4.42
